sensor_id;sensor_type;location;lat;lon;timestamp;temperature;humidity
50067;DHT22;35952;52.524;13.340;2022-09-29T00:01:07;10.10;99.90
50067;DHT22;35952;52.524;13.340;2022-09-29T00:03:33;10.10;99.90
50067;DHT22;35952;52.524;13.340;2022-09-29T00:06:01;10.10;99.90
50067;DHT22;35952;52.524;13.340;2022-09-29T00:08:30;9.90;99.90
50067;DHT22;35952;52.524;13.340;2022-09-29T00:11:06;9.80;99.90
50067;DHT22;35952;52.524;13.340;2022-09-29T00:13:40;9.90;99.90
50067;DHT22;35952;52.524;13.340;2022-09-29T00:16:06;9.80;99.90
50067;DHT22;35952;52.524;13.340;2022-09-29T00:18:35;9.80;99.90
50067;DHT22;35952;52.524;13.340;2022-09-29T00:21:13;9.80;99.90
50067;DHT22;35952;52.524;13.340;2022-09-29T00:23:41;9.80;99.90
50067;DHT22;35952;52.524;13.340;2022-09-29T00:28:39;9.80;99.90
50067;DHT22;35952;52.524;13.340;2022-09-29T00:31:08;9.90;99.90
50067;DHT22;35952;52.524;13.340;2022-09-29T00:33:40;9.90;99.90
50067;DHT22;35952;52.524;13.340;2022-09-29T00:36:14;9.90;99.90
50067;DHT22;35952;52.524;13.340;2022-09-29T00:38:44;9.90;99.90
50067;DHT22;35952;52.524;13.340;2022-09-29T00:41:14;10.00;99.90
50067;DHT22;35952;52.524;13.340;2022-09-29T00:43:52;10.00;99.90
50067;DHT22;35952;52.524;13.340;2022-09-29T00:46:38;10.00;99.90
50067;DHT22;35952;52.524;13.340;2022-09-29T00:52:02;9.90;99.90
50067;DHT22;35952;52.524;13.340;2022-09-29T00:54:33;9.90;99.90
50067;DHT22;35952;52.524;13.340;2022-09-29T00:57:08;9.80;99.90
50067;DHT22;35952;52.524;13.340;2022-09-29T00:59:45;9.80;99.90
50067;DHT22;35952;52.524;13.340;2022-09-29T01:02:25;9.80;99.90
50067;DHT22;35952;52.524;13.340;2022-09-29T01:04:55;9.70;99.90
50067;DHT22;35952;52.524;13.340;2022-09-29T01:07:29;9.80;99.90
50067;DHT22;35952;52.524;13.340;2022-09-29T01:10:01;9.80;99.90
50067;DHT22;35952;52.524;13.340;2022-09-29T01:12:33;9.90;99.90
50067;DHT22;35952;52.524;13.340;2022-09-29T01:14:58;9.90;99.90
50067;DHT22;35952;52.524;13.340;2022-09-29T01:17:30;9.90;99.90
50067;DHT22;35952;52.524;13.340;2022-09-29T01:20:19;9.90;99.90
50067;DHT22;35952;52.524;13.340;2022-09-29T01:23:11;9.90;99.90
50067;DHT22;35952;52.524;13.340;2022-09-29T01:26:20;9.90;99.90
50067;DHT22;35952;52.524;13.340;2022-09-29T01:31:57;9.90;99.90
50067;DHT22;35952;52.524;13.340;2022-09-29T01:34:47;9.90;99.90
50067;DHT22;35952;52.524;13.340;2022-09-29T01:37:43;9.90;99.90
50067;DHT22;35952;52.524;13.340;2022-09-29T01:43:58;9.90;99.90
50067;DHT22;35952;52.524;13.340;2022-09-29T01:46:40;9.90;99.90
50067;DHT22;35952;52.524;13.340;2022-09-29T01:49:11;9.90;99.90
50067;DHT22;35952;52.524;13.340;2022-09-29T01:54:19;10.00;99.90
50067;DHT22;35952;52.524;13.340;2022-09-29T01:57:06;10.00;99.90
50067;DHT22;35952;52.524;13.340;2022-09-29T02:05:24;9.90;99.90
50067;DHT22;35952;52.524;13.340;2022-09-29T02:07:58;9.90;99.90
50067;DHT22;35952;52.524;13.340;2022-09-29T02:10:40;10.10;99.90
50067;DHT22;35952;52.524;13.340;2022-09-29T02:13:11;10.00;99.90
50067;DHT22;35952;52.524;13.340;2022-09-29T02:15:45;10.00;99.90
50067;DHT22;35952;52.524;13.340;2022-09-29T02:18:24;10.10;99.90
50067;DHT22;35952;52.524;13.340;2022-09-29T02:20:55;10.10;99.90
50067;DHT22;35952;52.524;13.340;2022-09-29T02:23:23;10.10;99.90
50067;DHT22;35952;52.524;13.340;2022-09-29T02:25:51;10.00;99.90
50067;DHT22;35952;52.524;13.340;2022-09-29T02:28:21;10.00;99.90
50067;DHT22;35952;52.524;13.340;2022-09-29T02:30:49;10.00;99.90
50067;DHT22;35952;52.524;13.340;2022-09-29T02:33:20;10.10;99.90
50067;DHT22;35952;52.524;13.340;2022-09-29T02:38:36;10.10;99.90
50067;DHT22;35952;52.524;13.340;2022-09-29T02:41:23;10.20;99.90
50067;DHT22;35952;52.524;13.340;2022-09-29T02:55:30;10.00;99.90
50067;DHT22;35952;52.524;13.340;2022-09-29T02:58:09;9.90;99.90
50067;DHT22;35952;52.524;13.340;2022-09-29T03:00:47;10.00;99.90
50067;DHT22;35952;52.524;13.340;2022-09-29T03:03:16;10.10;99.90
50067;DHT22;35952;52.524;13.340;2022-09-29T03:05:44;10.10;99.90
50067;DHT22;35952;52.524;13.340;2022-09-29T03:08:12;10.10;99.90
50067;DHT22;35952;52.524;13.340;2022-09-29T03:10:41;9.90;99.90
50067;DHT22;35952;52.524;13.340;2022-09-29T03:13:16;9.80;99.90
50067;DHT22;35952;52.524;13.340;2022-09-29T03:15:44;9.70;99.90
50067;DHT22;35952;52.524;13.340;2022-09-29T03:18:13;9.90;99.90
50067;DHT22;35952;52.524;13.340;2022-09-29T03:20:41;9.80;99.90
50067;DHT22;35952;52.524;13.340;2022-09-29T03:23:12;9.90;99.90
50067;DHT22;35952;52.524;13.340;2022-09-29T03:25:41;9.90;99.90
50067;DHT22;35952;52.524;13.340;2022-09-29T03:28:07;9.90;99.90
50067;DHT22;35952;52.524;13.340;2022-09-29T03:30:36;10.00;99.90
50067;DHT22;35952;52.524;13.340;2022-09-29T03:33:10;9.90;99.90
50067;DHT22;35952;52.524;13.340;2022-09-29T03:35:35;10.00;99.90
50067;DHT22;35952;52.524;13.340;2022-09-29T03:38:10;10.10;99.90
50067;DHT22;35952;52.524;13.340;2022-09-29T03:40:36;10.00;99.90
50067;DHT22;35952;52.524;13.340;2022-09-29T03:43:01;10.00;99.90
50067;DHT22;35952;52.524;13.340;2022-09-29T03:45:32;10.00;99.90
50067;DHT22;35952;52.524;13.340;2022-09-29T03:47:57;10.00;99.90
50067;DHT22;35952;52.524;13.340;2022-09-29T03:50:23;10.00;99.90
50067;DHT22;35952;52.524;13.340;2022-09-29T03:52:54;9.90;99.90
50067;DHT22;35952;52.524;13.340;2022-09-29T03:55:30;9.90;99.90
50067;DHT22;35952;52.524;13.340;2022-09-29T03:58:02;9.90;99.90
50067;DHT22;35952;52.524;13.340;2022-09-29T04:00:42;9.70;99.90
50067;DHT22;35952;52.524;13.340;2022-09-29T04:03:11;9.70;99.90
50067;DHT22;35952;52.524;13.340;2022-09-29T04:05:46;9.80;99.90
50067;DHT22;35952;52.524;13.340;2022-09-29T04:08:20;9.80;99.90
50067;DHT22;35952;52.524;13.340;2022-09-29T04:10:50;9.60;99.90
50067;DHT22;35952;52.524;13.340;2022-09-29T04:13:18;9.50;99.90
50067;DHT22;35952;52.524;13.340;2022-09-29T04:15:55;9.60;99.90
50067;DHT22;35952;52.524;13.340;2022-09-29T04:18:24;9.70;99.90
50067;DHT22;35952;52.524;13.340;2022-09-29T04:20:53;9.80;99.90
50067;DHT22;35952;52.524;13.340;2022-09-29T04:23:24;9.90;99.90
50067;DHT22;35952;52.524;13.340;2022-09-29T04:26:02;10.00;99.90
50067;DHT22;35952;52.524;13.340;2022-09-29T04:28:30;9.90;99.90
50067;DHT22;35952;52.524;13.340;2022-09-29T04:30:58;10.00;99.90
50067;DHT22;35952;52.524;13.340;2022-09-29T04:33:29;9.90;99.90
50067;DHT22;35952;52.524;13.340;2022-09-29T04:36:05;10.00;99.90
50067;DHT22;35952;52.524;13.340;2022-09-29T04:38:31;9.90;99.90
50067;DHT22;35952;52.524;13.340;2022-09-29T04:41:00;9.90;99.90
50067;DHT22;35952;52.524;13.340;2022-09-29T04:43:33;9.80;99.90
50067;DHT22;35952;52.524;13.340;2022-09-29T04:46:25;10.00;99.90
50067;DHT22;35952;52.524;13.340;2022-09-29T04:48:56;10.00;99.90
50067;DHT22;35952;52.524;13.340;2022-09-29T04:51:24;10.00;99.90
50067;DHT22;35952;52.524;13.340;2022-09-29T04:53:52;10.00;99.90
50067;DHT22;35952;52.524;13.340;2022-09-29T04:56:20;10.00;99.90
50067;DHT22;35952;52.524;13.340;2022-09-29T04:58:45;9.90;99.90
50067;DHT22;35952;52.524;13.340;2022-09-29T05:01:11;10.00;99.90
50067;DHT22;35952;52.524;13.340;2022-09-29T05:03:38;10.00;99.90
50067;DHT22;35952;52.524;13.340;2022-09-29T05:06:04;10.00;99.90
50067;DHT22;35952;52.524;13.340;2022-09-29T05:08:30;9.90;99.90
50067;DHT22;35952;52.524;13.340;2022-09-29T05:10:55;10.00;99.90
50067;DHT22;35952;52.524;13.340;2022-09-29T05:13:21;10.10;99.90
50067;DHT22;35952;52.524;13.340;2022-09-29T05:15:46;10.00;99.90
50067;DHT22;35952;52.524;13.340;2022-09-29T05:18:12;10.10;99.90
50067;DHT22;35952;52.524;13.340;2022-09-29T05:20:37;10.10;99.90
50067;DHT22;35952;52.524;13.340;2022-09-29T05:23:03;10.10;99.90
50067;DHT22;35952;52.524;13.340;2022-09-29T05:25:35;10.10;99.90
50067;DHT22;35952;52.524;13.340;2022-09-29T05:28:00;10.10;99.90
50067;DHT22;35952;52.524;13.340;2022-09-29T05:30:26;10.10;99.90
50067;DHT22;35952;52.524;13.340;2022-09-29T05:32:51;10.10;99.90
50067;DHT22;35952;52.524;13.340;2022-09-29T05:35:17;10.20;99.90
50067;DHT22;35952;52.524;13.340;2022-09-29T05:37:44;10.20;99.90
50067;DHT22;35952;52.524;13.340;2022-09-29T05:40:10;10.20;99.90
50067;DHT22;35952;52.524;13.340;2022-09-29T05:42:35;10.20;99.90
50067;DHT22;35952;52.524;13.340;2022-09-29T05:45:01;10.20;99.90
50067;DHT22;35952;52.524;13.340;2022-09-29T05:47:27;10.20;99.90
50067;DHT22;35952;52.524;13.340;2022-09-29T05:49:52;10.20;99.90
50067;DHT22;35952;52.524;13.340;2022-09-29T05:52:17;10.20;99.90
50067;DHT22;35952;52.524;13.340;2022-09-29T05:54:43;10.10;99.90
50067;DHT22;35952;52.524;13.340;2022-09-29T05:57:08;10.10;99.90
50067;DHT22;35952;52.524;13.340;2022-09-29T05:59:34;10.20;99.90
50067;DHT22;35952;52.524;13.340;2022-09-29T06:01:59;10.30;99.90
50067;DHT22;35952;52.524;13.340;2022-09-29T06:04:25;10.30;99.90
50067;DHT22;35952;52.524;13.340;2022-09-29T06:06:50;10.40;99.90
50067;DHT22;35952;52.524;13.340;2022-09-29T06:09:16;10.40;99.90
50067;DHT22;35952;52.524;13.340;2022-09-29T06:11:42;10.40;99.90
50067;DHT22;35952;52.524;13.340;2022-09-29T06:14:08;10.30;99.90
50067;DHT22;35952;52.524;13.340;2022-09-29T06:16:33;10.30;99.90
50067;DHT22;35952;52.524;13.340;2022-09-29T06:19:00;10.30;99.90
50067;DHT22;35952;52.524;13.340;2022-09-29T06:21:27;10.30;99.90
50067;DHT22;35952;52.524;13.340;2022-09-29T06:23:54;10.30;99.90
50067;DHT22;35952;52.524;13.340;2022-09-29T06:26:21;10.20;99.90
50067;DHT22;35952;52.524;13.340;2022-09-29T06:28:47;10.30;99.90
50067;DHT22;35952;52.524;13.340;2022-09-29T06:31:15;10.50;99.90
50067;DHT22;35952;52.524;13.340;2022-09-29T06:33:41;10.50;99.90
50067;DHT22;35952;52.524;13.340;2022-09-29T06:39:02;10.60;99.90
50067;DHT22;35952;52.524;13.340;2022-09-29T06:41:27;10.60;99.90
50067;DHT22;35952;52.524;13.340;2022-09-29T06:43:54;10.60;99.90
50067;DHT22;35952;52.524;13.340;2022-09-29T06:46:20;10.50;99.90
50067;DHT22;35952;52.524;13.340;2022-09-29T06:48:46;10.60;99.90
50067;DHT22;35952;52.524;13.340;2022-09-29T06:51:12;10.60;99.90
50067;DHT22;35952;52.524;13.340;2022-09-29T06:53:39;10.30;99.90
50067;DHT22;35952;52.524;13.340;2022-09-29T06:56:06;10.20;99.90
50067;DHT22;35952;52.524;13.340;2022-09-29T06:58:33;10.50;99.90
50067;DHT22;35952;52.524;13.340;2022-09-29T07:01:00;10.30;99.90
50067;DHT22;35952;52.524;13.340;2022-09-29T07:03:27;10.50;99.90
50067;DHT22;35952;52.524;13.340;2022-09-29T07:05:52;10.60;99.90
50067;DHT22;35952;52.524;13.340;2022-09-29T07:08:18;10.50;99.90
50067;DHT22;35952;52.524;13.340;2022-09-29T07:10:45;10.30;99.90
50067;DHT22;35952;52.524;13.340;2022-09-29T07:13:10;10.20;99.90
50067;DHT22;35952;52.524;13.340;2022-09-29T07:15:36;10.60;99.90
50067;DHT22;35952;52.524;13.340;2022-09-29T07:18:03;10.80;99.90
50067;DHT22;35952;52.524;13.340;2022-09-29T07:20:29;10.90;99.90
50067;DHT22;35952;52.524;13.340;2022-09-29T07:22:58;10.90;99.90
50067;DHT22;35952;52.524;13.340;2022-09-29T07:25:24;10.90;99.90
50067;DHT22;35952;52.524;13.340;2022-09-29T07:27:50;11.00;99.90
50067;DHT22;35952;52.524;13.340;2022-09-29T07:30:16;10.50;99.90
50067;DHT22;35952;52.524;13.340;2022-09-29T07:32:41;10.70;99.90
50067;DHT22;35952;52.524;13.340;2022-09-29T07:35:07;11.00;99.90
50067;DHT22;35952;52.524;13.340;2022-09-29T07:37:33;11.10;99.90
50067;DHT22;35952;52.524;13.340;2022-09-29T07:39:58;11.10;99.90
50067;DHT22;35952;52.524;13.340;2022-09-29T07:42:28;11.10;99.90
50067;DHT22;35952;52.524;13.340;2022-09-29T07:44:55;10.70;99.90
50067;DHT22;35952;52.524;13.340;2022-09-29T07:47:21;10.60;99.90
50067;DHT22;35952;52.524;13.340;2022-09-29T07:49:46;10.30;99.90
50067;DHT22;35952;52.524;13.340;2022-09-29T07:52:13;10.40;99.90
50067;DHT22;35952;52.524;13.340;2022-09-29T07:54:39;10.30;99.90
50067;DHT22;35952;52.524;13.340;2022-09-29T07:57:04;10.60;99.90
50067;DHT22;35952;52.524;13.340;2022-09-29T07:59:30;10.40;99.90
50067;DHT22;35952;52.524;13.340;2022-09-29T08:01:56;10.60;99.90
50067;DHT22;35952;52.524;13.340;2022-09-29T08:04:21;10.80;99.90
50067;DHT22;35952;52.524;13.340;2022-09-29T08:06:47;10.80;99.90
50067;DHT22;35952;52.524;13.340;2022-09-29T08:09:13;10.70;99.90
50067;DHT22;35952;52.524;13.340;2022-09-29T08:11:40;11.10;99.90
50067;DHT22;35952;52.524;13.340;2022-09-29T08:14:07;11.10;99.90
50067;DHT22;35952;52.524;13.340;2022-09-29T08:16:34;10.90;99.90
50067;DHT22;35952;52.524;13.340;2022-09-29T08:19:00;10.80;99.90
50067;DHT22;35952;52.524;13.340;2022-09-29T08:21:27;10.80;99.90
50067;DHT22;35952;52.524;13.340;2022-09-29T08:23:54;11.00;99.90
50067;DHT22;35952;52.524;13.340;2022-09-29T08:26:21;11.10;99.90
50067;DHT22;35952;52.524;13.340;2022-09-29T08:28:47;11.20;99.90
50067;DHT22;35952;52.524;13.340;2022-09-29T08:31:15;10.70;99.90
50067;DHT22;35952;52.524;13.340;2022-09-29T08:33:43;10.80;99.90
50067;DHT22;35952;52.524;13.340;2022-09-29T08:36:09;10.90;99.90
50067;DHT22;35952;52.524;13.340;2022-09-29T08:38:48;11.20;99.90
50067;DHT22;35952;52.524;13.340;2022-09-29T08:41:31;11.50;99.90
50067;DHT22;35952;52.524;13.340;2022-09-29T08:44:33;11.50;99.90
50067;DHT22;35952;52.524;13.340;2022-09-29T08:52:57;11.90;99.90
50067;DHT22;35952;52.524;13.340;2022-09-29T08:55:40;12.10;99.90
50067;DHT22;35952;52.524;13.340;2022-09-29T08:58:10;12.20;99.90
50067;DHT22;35952;52.524;13.340;2022-09-29T09:00:47;12.20;99.90
50067;DHT22;35952;52.524;13.340;2022-09-29T09:03:41;12.50;99.90
50067;DHT22;35952;52.524;13.340;2022-09-29T09:06:33;12.70;99.90
50067;DHT22;35952;52.524;13.340;2022-09-29T09:20:29;12.90;99.90
50067;DHT22;35952;52.524;13.340;2022-09-29T09:23:00;12.80;99.90
50067;DHT22;35952;52.524;13.340;2022-09-29T09:25:31;13.00;99.90
50067;DHT22;35952;52.524;13.340;2022-09-29T09:28:15;13.10;99.90
50067;DHT22;35952;52.524;13.340;2022-09-29T09:31:00;13.10;99.90
50067;DHT22;35952;52.524;13.340;2022-09-29T09:33:51;13.30;99.90
50067;DHT22;35952;52.524;13.340;2022-09-29T09:36:32;13.40;99.90
50067;DHT22;35952;52.524;13.340;2022-09-29T09:39:10;13.50;99.90
50067;DHT22;35952;52.524;13.340;2022-09-29T09:41:39;13.60;99.90
50067;DHT22;35952;52.524;13.340;2022-09-29T09:44:25;13.30;99.90
50067;DHT22;35952;52.524;13.340;2022-09-29T09:49:43;13.20;99.90
50067;DHT22;35952;52.524;13.340;2022-09-29T09:52:19;12.90;99.90
50067;DHT22;35952;52.524;13.340;2022-09-29T09:54:49;12.80;99.90
50067;DHT22;35952;52.524;13.340;2022-09-29T10:00:50;13.60;99.90
50067;DHT22;35952;52.524;13.340;2022-09-29T10:03:17;14.00;99.90
50067;DHT22;35952;52.524;13.340;2022-09-29T10:05:46;14.30;99.90
50067;DHT22;35952;52.524;13.340;2022-09-29T10:08:34;14.40;99.90
50067;DHT22;35952;52.524;13.340;2022-09-29T10:13:44;14.30;99.90
50067;DHT22;35952;52.524;13.340;2022-09-29T10:16:19;14.10;99.90
50067;DHT22;35952;52.524;13.340;2022-09-29T10:18:49;14.00;99.90
50067;DHT22;35952;52.524;13.340;2022-09-29T10:23:51;14.10;99.90
50067;DHT22;35952;52.524;13.340;2022-09-29T10:26:29;14.20;99.90
50067;DHT22;35952;52.524;13.340;2022-09-29T10:29:00;13.80;99.90
50067;DHT22;35952;52.524;13.340;2022-09-29T10:31:29;13.80;99.90
50067;DHT22;35952;52.524;13.340;2022-09-29T10:34:01;14.20;99.90
50067;DHT22;35952;52.524;13.340;2022-09-29T10:36:31;14.60;99.90
50067;DHT22;35952;52.524;13.340;2022-09-29T10:38:58;14.80;99.90
50067;DHT22;35952;52.524;13.340;2022-09-29T10:41:24;14.80;99.90
50067;DHT22;35952;52.524;13.340;2022-09-29T10:43:50;15.40;99.90
50067;DHT22;35952;52.524;13.340;2022-09-29T10:49:16;16.20;99.90
50067;DHT22;35952;52.524;13.340;2022-09-29T10:54:23;16.50;99.90
50067;DHT22;35952;52.524;13.340;2022-09-29T10:56:53;15.80;99.90
50067;DHT22;35952;52.524;13.340;2022-09-29T10:59:20;15.20;99.90
50067;DHT22;35952;52.524;13.340;2022-09-29T11:01:53;14.80;99.90
50067;DHT22;35952;52.524;13.340;2022-09-29T11:04:29;15.00;99.90
50067;DHT22;35952;52.524;13.340;2022-09-29T11:07:03;14.40;99.90
50067;DHT22;35952;52.524;13.340;2022-09-29T11:09:42;14.20;99.90
50067;DHT22;35952;52.524;13.340;2022-09-29T11:14:53;14.40;99.90
50067;DHT22;35952;52.524;13.340;2022-09-29T11:17:38;14.40;99.90
50067;DHT22;35952;52.524;13.340;2022-09-29T11:20:09;14.00;99.90
50067;DHT22;35952;52.524;13.340;2022-09-29T11:25:48;14.10;99.90
50067;DHT22;35952;52.524;13.340;2022-09-29T11:31:22;14.20;99.90
50067;DHT22;35952;52.524;13.340;2022-09-29T11:37:02;13.90;99.90
50067;DHT22;35952;52.524;13.340;2022-09-29T11:42:35;13.90;99.90
50067;DHT22;35952;52.524;13.340;2022-09-29T11:45:08;13.80;99.90
50067;DHT22;35952;52.524;13.340;2022-09-29T11:48:05;13.70;99.90
50067;DHT22;35952;52.524;13.340;2022-09-29T11:56:34;13.60;99.90
50067;DHT22;35952;52.524;13.340;2022-09-29T11:59:27;13.70;99.90
50067;DHT22;35952;52.524;13.340;2022-09-29T12:02:25;13.80;99.90
50067;DHT22;35952;52.524;13.340;2022-09-29T12:16:16;13.90;99.90
50067;DHT22;35952;52.524;13.340;2022-09-29T12:18:55;14.10;99.90
50067;DHT22;35952;52.524;13.340;2022-09-29T12:21:38;14.00;99.90
50067;DHT22;35952;52.524;13.340;2022-09-29T12:24:15;13.90;99.90
50067;DHT22;35952;52.524;13.340;2022-09-29T12:26:44;13.70;99.90
50067;DHT22;35952;52.524;13.340;2022-09-29T12:29:28;13.80;99.90
50067;DHT22;35952;52.524;13.340;2022-09-29T12:31:57;14.00;99.90
50067;DHT22;35952;52.524;13.340;2022-09-29T12:37:22;14.30;99.90
50067;DHT22;35952;52.524;13.340;2022-09-29T12:43:09;15.30;99.90
50067;DHT22;35952;52.524;13.340;2022-09-29T12:46:01;15.70;99.90
50067;DHT22;35952;52.524;13.340;2022-09-29T12:51:37;16.00;99.90
50067;DHT22;35952;52.524;13.340;2022-09-29T12:54:26;16.00;99.90
50067;DHT22;35952;52.524;13.340;2022-09-29T12:57:03;15.40;99.90
50067;DHT22;35952;52.524;13.340;2022-09-29T12:59:48;15.00;99.90
50067;DHT22;35952;52.524;13.340;2022-09-29T13:16:36;14.30;99.90
50067;DHT22;35952;52.524;13.340;2022-09-29T13:19:29;14.20;99.90
50067;DHT22;35952;52.524;13.340;2022-09-29T13:25:10;14.10;99.90
50067;DHT22;35952;52.524;13.340;2022-09-29T13:27:40;14.10;99.90
50067;DHT22;35952;52.524;13.340;2022-09-29T13:30:16;14.10;99.90
50067;DHT22;35952;52.524;13.340;2022-09-29T13:35:19;14.20;99.90
50067;DHT22;35952;52.524;13.340;2022-09-29T13:37:52;14.30;99.90
50067;DHT22;35952;52.524;13.340;2022-09-29T13:40:27;14.30;99.90
50067;DHT22;35952;52.524;13.340;2022-09-29T13:42:58;14.40;99.90
50067;DHT22;35952;52.524;13.340;2022-09-29T13:47:54;14.30;99.90
50067;DHT22;35952;52.524;13.340;2022-09-29T13:56:07;15.50;99.90
50067;DHT22;35952;52.524;13.340;2022-09-29T13:58:52;15.80;99.90
50067;DHT22;35952;52.524;13.340;2022-09-29T14:01:37;15.90;99.90
50067;DHT22;35952;52.524;13.340;2022-09-29T14:07:06;15.40;99.90
50067;DHT22;35952;52.524;13.340;2022-09-29T14:09:42;15.50;99.90
50067;DHT22;35952;52.524;13.340;2022-09-29T14:12:17;15.50;99.90
50067;DHT22;35952;52.524;13.340;2022-09-29T14:14:49;15.50;99.90
50067;DHT22;35952;52.524;13.340;2022-09-29T14:17:20;15.50;99.90
50067;DHT22;35952;52.524;13.340;2022-09-29T14:20:13;15.20;99.90
50067;DHT22;35952;52.524;13.340;2022-09-29T14:23:01;15.40;99.90
50067;DHT22;35952;52.524;13.340;2022-09-29T14:25:30;15.10;99.90
50067;DHT22;35952;52.524;13.340;2022-09-29T14:33:23;14.90;99.90
50067;DHT22;35952;52.524;13.340;2022-09-29T14:38:28;15.00;99.90
50067;DHT22;35952;52.524;13.340;2022-09-29T14:41:01;15.00;99.90
50067;DHT22;35952;52.524;13.340;2022-09-29T14:43:35;15.20;99.60
50067;DHT22;35952;52.524;13.340;2022-09-29T14:55:14;15.10;97.40
50067;DHT22;35952;52.524;13.340;2022-09-29T15:03:18;14.70;98.20
50067;DHT22;35952;52.524;13.340;2022-09-29T15:05:46;14.70;98.50
50067;DHT22;35952;52.524;13.340;2022-09-29T15:08:26;14.40;99.20
50067;DHT22;35952;52.524;13.340;2022-09-29T15:10:52;14.30;99.90
50067;DHT22;35952;52.524;13.340;2022-09-29T15:21:04;14.10;99.90
50067;DHT22;35952;52.524;13.340;2022-09-29T15:23:56;14.20;99.90
50067;DHT22;35952;52.524;13.340;2022-09-29T15:26:25;14.20;99.90
50067;DHT22;35952;52.524;13.340;2022-09-29T15:28:53;14.20;99.90
50067;DHT22;35952;52.524;13.340;2022-09-29T15:31:29;14.40;99.90
50067;DHT22;35952;52.524;13.340;2022-09-29T15:33:56;14.60;99.90
50067;DHT22;35952;52.524;13.340;2022-09-29T15:36:23;14.40;99.90
50067;DHT22;35952;52.524;13.340;2022-09-29T15:42:02;14.30;99.90
50067;DHT22;35952;52.524;13.340;2022-09-29T15:44:30;14.30;99.90
50067;DHT22;35952;52.524;13.340;2022-09-29T15:46:59;14.20;99.90
50067;DHT22;35952;52.524;13.340;2022-09-29T15:49:26;14.20;99.90
50067;DHT22;35952;52.524;13.340;2022-09-29T15:52:04;14.00;99.90
50067;DHT22;35952;52.524;13.340;2022-09-29T15:54:35;14.00;99.90
50067;DHT22;35952;52.524;13.340;2022-09-29T15:57:05;13.90;99.90
50067;DHT22;35952;52.524;13.340;2022-09-29T15:59:53;13.90;99.90
50067;DHT22;35952;52.524;13.340;2022-09-29T16:02:39;13.80;99.90
50067;DHT22;35952;52.524;13.340;2022-09-29T16:05:09;13.80;99.90
50067;DHT22;35952;52.524;13.340;2022-09-29T16:07:47;13.70;99.90
50067;DHT22;35952;52.524;13.340;2022-09-29T16:10:16;13.60;99.90
50067;DHT22;35952;52.524;13.340;2022-09-29T16:12:57;13.50;99.90
50067;DHT22;35952;52.524;13.340;2022-09-29T16:15:41;13.50;99.90
50067;DHT22;35952;52.524;13.340;2022-09-29T16:18:10;13.40;99.90
50067;DHT22;35952;52.524;13.340;2022-09-29T16:20:42;13.30;99.90
50067;DHT22;35952;52.524;13.340;2022-09-29T16:23:26;13.30;99.90
50067;DHT22;35952;52.524;13.340;2022-09-29T16:26:08;13.20;99.90
50067;DHT22;35952;52.524;13.340;2022-09-29T16:28:37;13.10;99.90
50067;DHT22;35952;52.524;13.340;2022-09-29T16:31:19;13.10;99.90
50067;DHT22;35952;52.524;13.340;2022-09-29T16:33:55;13.00;99.90
50067;DHT22;35952;52.524;13.340;2022-09-29T16:36:23;12.90;99.90
50067;DHT22;35952;52.524;13.340;2022-09-29T16:38:51;12.90;99.90
50067;DHT22;35952;52.524;13.340;2022-09-29T16:41:35;12.90;99.90
50067;DHT22;35952;52.524;13.340;2022-09-29T16:46:41;12.80;99.90
50067;DHT22;35952;52.524;13.340;2022-09-29T16:51:52;12.60;99.90
50067;DHT22;35952;52.524;13.340;2022-09-29T16:54:28;12.60;99.90
50067;DHT22;35952;52.524;13.340;2022-09-29T16:57:18;12.60;99.90
50067;DHT22;35952;52.524;13.340;2022-09-29T16:59:47;12.50;99.90
50067;DHT22;35952;52.524;13.340;2022-09-29T17:02:13;12.50;99.90
50067;DHT22;35952;52.524;13.340;2022-09-29T17:04:39;12.40;99.90
50067;DHT22;35952;52.524;13.340;2022-09-29T17:07:04;12.30;99.90
50067;DHT22;35952;52.524;13.340;2022-09-29T17:09:30;12.40;99.90
50067;DHT22;35952;52.524;13.340;2022-09-29T17:11:56;12.30;99.90
50067;DHT22;35952;52.524;13.340;2022-09-29T17:14:24;12.30;99.90
50067;DHT22;35952;52.524;13.340;2022-09-29T17:16:50;12.20;99.90
50067;DHT22;35952;52.524;13.340;2022-09-29T17:19:18;12.20;99.90
50067;DHT22;35952;52.524;13.340;2022-09-29T17:21:45;12.10;99.90
50067;DHT22;35952;52.524;13.340;2022-09-29T17:24:10;12.10;99.90
50067;DHT22;35952;52.524;13.340;2022-09-29T17:26:39;12.00;99.90
50067;DHT22;35952;52.524;13.340;2022-09-29T17:29:25;12.00;99.90
50067;DHT22;35952;52.524;13.340;2022-09-29T17:31:50;11.90;99.90
50067;DHT22;35952;52.524;13.340;2022-09-29T17:34:16;12.00;99.90
50067;DHT22;35952;52.524;13.340;2022-09-29T17:36:42;12.00;99.90
50067;DHT22;35952;52.524;13.340;2022-09-29T17:39:08;11.90;99.90
50067;DHT22;35952;52.524;13.340;2022-09-29T17:41:34;11.90;99.90
50067;DHT22;35952;52.524;13.340;2022-09-29T17:43:59;11.90;99.90
50067;DHT22;35952;52.524;13.340;2022-09-29T17:46:30;11.90;99.90
50067;DHT22;35952;52.524;13.340;2022-09-29T17:48:55;11.90;99.90
50067;DHT22;35952;52.524;13.340;2022-09-29T17:51:21;11.80;99.90
50067;DHT22;35952;52.524;13.340;2022-09-29T17:53:46;11.80;99.90
50067;DHT22;35952;52.524;13.340;2022-09-29T17:56:25;11.80;99.90
50067;DHT22;35952;52.524;13.340;2022-09-29T17:58:52;11.80;99.90
50067;DHT22;35952;52.524;13.340;2022-09-29T18:01:20;11.80;99.90
50067;DHT22;35952;52.524;13.340;2022-09-29T18:03:46;11.80;99.90
50067;DHT22;35952;52.524;13.340;2022-09-29T18:06:20;11.80;99.90
50067;DHT22;35952;52.524;13.340;2022-09-29T18:08:47;11.70;99.90
50067;DHT22;35952;52.524;13.340;2022-09-29T18:11:16;11.60;99.90
50067;DHT22;35952;52.524;13.340;2022-09-29T18:13:42;11.60;99.90
50067;DHT22;35952;52.524;13.340;2022-09-29T18:16:11;11.50;99.90
50067;DHT22;35952;52.524;13.340;2022-09-29T18:18:37;11.60;99.90
50067;DHT22;35952;52.524;13.340;2022-09-29T18:21:03;11.50;99.90
50067;DHT22;35952;52.524;13.340;2022-09-29T18:23:30;11.40;99.90
50067;DHT22;35952;52.524;13.340;2022-09-29T18:25:56;11.40;99.90
50067;DHT22;35952;52.524;13.340;2022-09-29T18:28:21;11.40;99.90
50067;DHT22;35952;52.524;13.340;2022-09-29T18:31:03;11.30;99.90
50067;DHT22;35952;52.524;13.340;2022-09-29T18:33:33;11.20;99.90
50067;DHT22;35952;52.524;13.340;2022-09-29T18:35:59;11.20;99.90
50067;DHT22;35952;52.524;13.340;2022-09-29T18:38:25;11.20;99.90
50067;DHT22;35952;52.524;13.340;2022-09-29T18:40:54;11.20;99.90
50067;DHT22;35952;52.524;13.340;2022-09-29T18:43:20;11.20;99.90
50067;DHT22;35952;52.524;13.340;2022-09-29T18:45:49;11.20;99.90
50067;DHT22;35952;52.524;13.340;2022-09-29T18:48:14;11.10;99.90